Time,TemperatureF,DewpointF,PressureIn,WindDirection,WindDirectionDegrees,WindSpeedMPH,WindSpeedGustMPH,Humidity,HourlyPrecipIn,Conditions,Clouds,dailyrainin,SoftwareType,DateUTC
2013-05-17 00:02:00,67.6,63.0,29.90,SW,228,0.0,2.0,84,0.00,,,0.00,weatherlink.com 1.10,2013-05-17 05:02:00,
2013-05-17 00:17:00,67.7,63.0,29.90,SW,229,3.0,4.0,85,0.00,,,0.00,weatherlink.com 1.10,2013-05-17 05:17:00,
2013-05-17 00:32:00,67.7,63.0,29.90,SE,141,1.0,3.0,84,0.00,,,0.00,weatherlink.com 1.10,2013-05-17 05:32:00,
2013-05-17 00:47:00,67.9,63.0,29.90,SSW,202,0.0,4.0,83,0.00,,,0.00,weatherlink.com 1.10,2013-05-17 05:47:00,
2013-05-17 01:02:00,68.2,63.0,29.90,WSW,242,0.0,2.0,83,0.00,,,0.00,weatherlink.com 1.10,2013-05-17 06:02:00,
2013-05-17 01:17:00,68.3,63.0,29.90,East,91,1.0,4.0,82,0.00,,,0.00,weatherlink.com 1.10,2013-05-17 06:17:00,
2013-05-17 01:32:00,68.5,63.0,29.90,NNW,334,0.0,2.0,82,0.00,,,0.00,weatherlink.com 1.10,2013-05-17 06:32:00,
2013-05-17 01:47:00,68.4,63.0,29.89,East,83,2.0,3.0,82,0.00,,,0.00,weatherlink.com 1.10,2013-05-17 06:47:00,
2013-05-17 02:02:00,68.3,63.0,29.89,SW,221,3.0,3.0,83,0.00,,,0.00,weatherlink.com 1.10,2013-05-17 07:02:00,
2013-05-17 02:17:00,68.1,63.0,29.89,East,91,0.0,2.0,83,0.00,,,0.00,weatherlink.com 1.10,2013-05-17 07:17:00,
2013-05-17 02:32:00,68.0,63.0,29.89,WSW,252,1.0,2.0,84,0.00,,,0.00,weatherlink.com 1.10,2013-05-17 07:32:00,
2013-05-17 02:47:00,67.9,63.0,29.89,ESE,119,0.0,1.0,85,0.00,,,0.00,weatherlink.com 1.10,2013-05-17 07:47:00,
2013-05-17 03:02:00,67.8,64.0,29.88,ENE,77,0.0,1.0,86,0.00,,,0.00,weatherlink.com 1.10,2013-05-17 08:02:00,
2013-05-17 03:17:00,67.8,64.0,29.88,South,184,0.0,3.0,86,0.00,,,0.00,weatherlink.com 1.10,2013-05-17 08:17:00,
2013-05-17 03:32:00,67.4,64.0,29.88,East,98,1.0,3.0,89,0.00,,,0.00,weatherlink.com 1.10,2013-05-17 08:32:00,
2013-05-17 03:47:00,67.2,64.0,29.88,SE,132,0.0,1.0,89,0.00,,,0.00,weatherlink.com 1.10,2013-05-17 08:47:00,
2013-05-17 04:02:00,67.1,64.0,29.88,East,81,0.0,2.0,90,0.01,,,0.01,weatherlink.com 1.10,2013-05-17 09:02:00,
2013-05-17 04:17:00,66.9,65.0,29.88,SW,221,2.0,2.0,92,0.02,,,0.02,weatherlink.com 1.10,2013-05-17 09:17:00,
2013-05-17 04:32:00,66.6,65.0,29.88,ESE,103,0.0,2.0,93,0.04,,,0.04,weatherlink.com 1.10,2013-05-17 09:32:00,
2013-05-17 04:48:00,66.4,65.0,29.88,WSW,239,0.0,0.0,95,0.04,,,0.04,weatherlink.com 1.10,2013-05-17 09:48:00,
2013-05-17 05:03:00,66.4,65.0,29.88,SE,136,0.0,0.0,96,0.03,,,0.04,weatherlink.com 1.10,2013-05-17 10:03:00,
2013-05-17 05:18:00,66.5,65.0,29.87,SSE,160,0.0,0.0,96,0.02,,,0.04,weatherlink.com 1.10,2013-05-17 10:18:00,
2013-05-17 05:34:00,66.6,66.0,29.87,WSW,239,0.0,1.0,96,0.00,,,0.04,weatherlink.com 1.10,2013-05-17 10:34:00,
2013-05-17 05:48:00,66.7,66.0,29.88,SE,124,0.0,4.0,96,0.00,,,0.04,weatherlink.com 1.10,2013-05-17 10:48:00,
2013-05-17 06:03:00,66.7,66.0,29.88,ENE,71,0.0,1.0,96,0.00,,,0.04,weatherlink.com 1.10,2013-05-17 11:03:00,
2013-05-17 06:18:00,66.8,66.0,29.89,SW,229,0.0,2.0,97,0.00,,,0.04,weatherlink.com 1.10,2013-05-17 11:18:00,
2013-05-17 06:33:00,67.1,66.0,29.89,WSW,238,0.0,4.0,97,0.00,,,0.04,weatherlink.com 1.10,2013-05-17 11:33:00,
2013-05-17 06:48:00,67.3,67.0,29.89,East,94,1.0,3.0,97,0.01,,,0.05,weatherlink.com 1.10,2013-05-17 11:48:00,
2013-05-17 07:03:00,67.4,67.0,29.89,SSW,212,1.0,5.0,97,0.01,,,0.05,weatherlink.com 1.10,2013-05-17 12:03:00,
2013-05-17 07:18:00,67.5,66.0,29.90,SSW,198,2.0,4.0,96,0.01,,,0.05,weatherlink.com 1.10,2013-05-17 12:18:00,
2013-05-17 07:33:00,67.6,66.0,29.90,SSW,194,2.0,7.0,95,0.02,,,0.06,weatherlink.com 1.10,2013-05-17 12:33:00,
2013-05-17 07:48:00,67.5,66.0,29.90,WSW,249,3.0,4.0,94,0.03,,,0.08,weatherlink.com 1.10,2013-05-17 12:48:00,
2013-05-17 08:03:00,67.3,66.0,29.90,SW,236,2.0,6.0,94,0.04,,,0.09,weatherlink.com 1.10,2013-05-17 13:03:00,
2013-05-17 08:18:00,67.5,66.0,29.91,ESE,115,4.0,5.0,94,0.04,,,0.09,weatherlink.com 1.10,2013-05-17 13:18:00,
2013-05-17 08:33:00,67.5,66.0,29.91,SW,224,2.0,7.0,93,0.03,,,0.09,weatherlink.com 1.10,2013-05-17 13:33:00,
2013-05-17 08:48:00,67.1,65.0,29.91,SE,134,2.0,4.0,94,0.01,,,0.09,weatherlink.com 1.10,2013-05-17 13:48:00,
2013-05-17 09:03:00,66.9,66.0,29.91,SW,224,0.0,2.0,95,0.01,,,0.10,weatherlink.com 1.10,2013-05-17 14:03:00,
2013-05-17 09:18:00,66.7,66.0,29.91,SSE,163,0.0,1.0,96,0.02,,,0.11,weatherlink.com 1.10,2013-05-17 14:18:00,
2013-05-17 09:33:00,66.7,66.0,29.90,SW,226,0.0,1.0,97,0.04,,,0.13,weatherlink.com 1.10,2013-05-17 14:33:00,
2013-05-17 09:48:00,66.7,66.0,29.90,SE,134,0.0,1.0,97,0.04,,,0.13,weatherlink.com 1.10,2013-05-17 14:48:00,
2013-05-17 10:03:00,67.0,66.0,29.90,WSW,254,0.0,1.0,97,0.05,,,0.15,weatherlink.com 1.10,2013-05-17 15:03:00,
2013-05-17 10:18:00,67.1,67.0,29.90,West,259,0.0,3.0,98,0.07,,,0.18,weatherlink.com 1.10,2013-05-17 15:18:00,
2013-05-17 10:33:00,67.1,67.0,29.90,ESE,107,2.0,5.0,98,0.06,,,0.19,weatherlink.com 1.10,2013-05-17 15:33:00,
2013-05-17 10:48:00,67.3,67.0,29.91,SW,232,0.0,2.0,98,0.06,,,0.20,weatherlink.com 1.10,2013-05-17 15:48:00,
2013-05-17 11:03:00,67.2,67.0,29.91,SW,233,0.0,2.0,98,0.06,,,0.21,weatherlink.com 1.10,2013-05-17 16:03:00,
2013-05-17 11:18:00,67.3,67.0,29.91,East,100,0.0,2.0,98,0.04,,,0.22,weatherlink.com 1.10,2013-05-17 16:18:00,
2013-05-17 11:33:00,67.5,67.0,29.91,WSW,248,0.0,3.0,98,0.04,,,0.23,weatherlink.com 1.10,2013-05-17 16:33:00,
2013-05-17 11:48:00,67.9,67.0,29.90,East,99,0.0,3.0,98,0.03,,,0.23,weatherlink.com 1.10,2013-05-17 16:48:00,
2013-05-17 12:03:00,68.4,68.0,29.90,SW,225,0.0,2.0,98,0.02,,,0.23,weatherlink.com 1.10,2013-05-17 17:03:00,
2013-05-17 12:18:00,68.6,68.0,29.90,SW,235,0.0,3.0,97,0.01,,,0.23,weatherlink.com 1.10,2013-05-17 17:18:00,
2013-05-17 12:33:00,69.0,68.0,29.90,SW,236,0.0,2.0,97,0.00,,,0.23,weatherlink.com 1.10,2013-05-17 17:33:00,
2013-05-17 12:48:00,69.1,68.0,29.90,SW,228,0.0,3.0,97,0.00,,,0.23,weatherlink.com 1.10,2013-05-17 17:48:00,
2013-05-17 13:03:00,69.2,68.0,29.90,East,99,0.0,2.0,97,0.00,,,0.23,weatherlink.com 1.10,2013-05-17 18:03:00,
2013-05-17 13:18:00,69.4,69.0,29.90,NW,321,0.0,1.0,97,0.00,,,0.23,weatherlink.com 1.10,2013-05-17 18:18:00,
2013-05-17 13:33:00,69.9,69.0,29.90,WSW,246,1.0,2.0,97,0.00,,,0.23,weatherlink.com 1.10,2013-05-17 18:33:00,
2013-05-17 13:48:00,71.3,70.0,29.90,WSW,250,0.0,3.0,96,0.00,,,0.23,weatherlink.com 1.10,2013-05-17 18:48:00,
2013-05-17 14:03:00,72.7,71.0,29.89,West,267,0.0,2.0,94,0.00,,,0.23,weatherlink.com 1.10,2013-05-17 19:03:00,
2013-05-17 14:18:00,74.9,71.0,29.89,East,92,1.0,5.0,87,0.00,,,0.23,weatherlink.com 1.10,2013-05-17 19:18:00,
2013-05-17 14:33:00,75.9,71.0,29.89,NNE,33,0.0,4.0,85,0.00,,,0.23,weatherlink.com 1.10,2013-05-17 19:33:00,
2013-05-17 14:48:00,76.5,72.0,29.88,WSW,249,0.0,2.0,85,0.00,,,0.23,weatherlink.com 1.10,2013-05-17 19:48:00,
2013-05-17 15:03:00,78.9,72.0,29.88,North,5,1.0,3.0,78,0.00,,,0.23,weatherlink.com 1.10,2013-05-17 20:03:00,
2013-05-17 15:18:00,78.2,71.0,29.88,WSW,246,2.0,6.0,79,0.00,,,0.23,weatherlink.com 1.10,2013-05-17 20:18:00,
2013-05-17 15:33:00,79.4,72.0,29.88,North,6,1.0,4.0,77,0.00,,,0.23,weatherlink.com 1.10,2013-05-17 20:33:00,
2013-05-17 15:48:00,79.5,71.0,29.87,NNW,344,1.0,5.0,74,0.00,,,0.23,weatherlink.com 1.10,2013-05-17 20:48:00,
2013-05-17 16:04:00,81.7,71.0,29.87,East,91,1.0,4.0,71,0.00,,,0.23,weatherlink.com 1.10,2013-05-17 21:04:00,
2013-05-17 16:20:00,81.3,70.0,29.87,NW,309,3.0,4.0,69,0.00,,,0.23,weatherlink.com 1.10,2013-05-17 21:20:00,
2013-05-17 16:34:00,81.6,71.0,29.86,NE,49,0.0,8.0,71,0.00,,,0.23,weatherlink.com 1.10,2013-05-17 21:34:00,
2013-05-17 16:49:00,81.0,69.0,29.87,WSW,253,2.0,5.0,67,0.00,,,0.23,weatherlink.com 1.10,2013-05-17 21:49:00,
2013-05-17 17:04:00,79.8,69.0,29.87,WSW,246,2.0,6.0,70,0.00,,,0.23,weatherlink.com 1.10,2013-05-17 22:04:00,
2013-05-17 17:19:00,79.6,69.0,29.87,NNW,334,4.0,4.0,70,0.00,,,0.23,weatherlink.com 1.10,2013-05-17 22:19:00,
2013-05-17 17:34:00,79.7,69.0,29.87,SW,226,0.0,6.0,69,0.00,,,0.23,weatherlink.com 1.10,2013-05-17 22:34:00,
2013-05-17 17:49:00,80.1,69.0,29.86,WSW,238,1.0,3.0,69,0.00,,,0.23,weatherlink.com 1.10,2013-05-17 22:49:00,
2013-05-17 18:04:00,81.3,69.0,29.87,WNW,300,0.0,2.0,66,0.00,,,0.23,weatherlink.com 1.10,2013-05-17 23:04:00,
2013-05-17 18:19:00,80.5,69.0,29.87,ENE,70,0.0,4.0,67,0.00,,,0.23,weatherlink.com 1.10,2013-05-17 23:19:00,
2013-05-17 18:34:00,80.4,68.0,29.87,East,79,1.0,3.0,67,0.00,,,0.23,weatherlink.com 1.10,2013-05-17 23:34:00,
2013-05-17 18:49:00,79.8,69.0,29.87,SSW,205,0.0,2.0,69,0.00,,,0.23,weatherlink.com 1.10,2013-05-17 23:49:00,
2013-05-17 19:04:00,79.2,69.0,29.88,West,264,0.0,3.0,71,0.00,,,0.23,weatherlink.com 1.10,2013-05-18 00:04:00,
2013-05-17 19:19:00,79.4,69.0,29.88,WSW,245,0.0,0.0,71,0.00,,,0.23,weatherlink.com 1.10,2013-05-18 00:19:00,
2013-05-17 19:34:00,77.2,69.0,29.89,NNE,22,0.0,0.0,75,0.00,,,0.23,weatherlink.com 1.10,2013-05-18 00:34:00,
2013-05-17 19:49:00,75.8,69.0,29.89,NNE,22,0.0,0.0,78,0.00,,,0.23,weatherlink.com 1.10,2013-05-18 00:49:00,
2013-05-17 20:04:00,74.8,68.0,29.89,NNE,19,0.0,0.0,80,0.00,,,0.23,weatherlink.com 1.10,2013-05-18 01:04:00,
2013-05-17 20:19:00,74.3,68.0,29.90,NNE,19,0.0,0.0,81,0.00,,,0.23,weatherlink.com 1.10,2013-05-18 01:19:00,
2013-05-17 20:34:00,73.2,69.0,29.89,NNE,19,0.0,0.0,85,0.00,,,0.23,weatherlink.com 1.10,2013-05-18 01:34:00,
2013-05-17 20:49:00,71.9,68.0,29.90,NNE,19,0.0,0.0,88,0.00,,,0.23,weatherlink.com 1.10,2013-05-18 01:49:00,
2013-05-17 21:04:00,70.8,68.0,29.90,NNE,19,0.0,0.0,91,0.00,,,0.23,weatherlink.com 1.10,2013-05-18 02:04:00,
2013-05-17 21:19:00,70.2,68.0,29.90,NNE,19,0.0,0.0,92,0.00,,,0.23,weatherlink.com 1.10,2013-05-18 02:19:00,
2013-05-17 21:34:00,69.2,67.0,29.91,NNE,19,0.0,0.0,93,0.00,,,0.23,weatherlink.com 1.10,2013-05-18 02:34:00,
2013-05-17 21:49:00,68.5,67.0,29.91,NNE,19,0.0,0.0,94,0.00,,,0.23,weatherlink.com 1.10,2013-05-18 02:49:00,
2013-05-17 22:04:00,68.0,67.0,29.92,NNE,19,0.0,0.0,96,0.00,,,0.23,weatherlink.com 1.10,2013-05-18 03:04:00,
2013-05-17 22:19:00,67.6,67.0,29.92,NNE,19,0.0,0.0,97,0.00,,,0.23,weatherlink.com 1.10,2013-05-18 03:19:00,
2013-05-17 22:34:00,67.4,67.0,29.93,NNE,19,0.0,0.0,97,0.00,,,0.23,weatherlink.com 1.10,2013-05-18 03:34:00,
2013-05-17 22:49:00,66.8,66.0,29.93,NNE,19,0.0,0.0,97,0.00,,,0.23,weatherlink.com 1.10,2013-05-18 03:49:00,
2013-05-17 23:04:00,66.6,66.0,29.93,NNE,19,0.0,0.0,97,0.00,,,0.23,weatherlink.com 1.10,2013-05-18 04:04:00,
2013-05-17 23:19:00,66.5,66.0,29.93,NNE,20,0.0,0.0,98,0.00,,,0.23,weatherlink.com 1.10,2013-05-18 04:19:00,
2013-05-17 23:34:00,66.4,66.0,29.93,NNE,19,0.0,0.0,98,0.00,,,0.23,weatherlink.com 1.10,2013-05-18 04:34:00,
2013-05-17 23:49:00,65.9,65.0,29.93,NNE,19,0.0,0.0,98,0.00,,,0.23,weatherlink.com 1.10,2013-05-18 04:49:00,